KHLN

Helena Regional Airport

Airport
ICAO code
KHLN
Summary
ICAO Region
NAM
ICAO Territory
Location

Helena, Montana,

Elevation
3877 ft
Coordinates
46° 36' 35" N , 111° 59' 24" W
KCC
Airport CFIT
Altimeter Temperature Error Correction
Airport RE
Hot and High Operations
Airport WX
Mountain Waves
Metar
Observation
KHLN 310853Z AUTO 00000KT 10SM FEW035 FEW050 OVC075 M06/M08 A2972 RMK AO2 SLP117 T10611083 56003 $
Station
Helena, Helena Regional Airport
Date/Time
2023-03-31 08:53:00
Wind direction
Wind speed
00 kts
Lowest cloud amount
few clouds
Temperature
-6.1°C
Dew point
-8.3°C
Humidity
84%
Weather condition
n/a

Description

Helena Regional Airport is a public use airport located 4 km northeast of the central business district of Helena, a city in Lewis and Clark County, Montana.

Climatology

Semi-arid climate (Köppen climate classification BSk) - Little summer precipitation, hot summers and cold winters, sometimes with large changes in temperature in a 24 hour period.

Airport map

Aerial View

SKYbrary Partners:

Safety knowledge contributed by: